createdAt,value
2023-01-07T00:01:24.745Z,98891.50
2023-01-07T00:03:27.967Z,98899.31
2023-01-07T00:05:30.807Z,98894.91
2023-01-07T00:07:33.491Z,98903.50
2023-01-07T00:09:36.251Z,98910.63
2023-01-07T00:11:40.765Z,98912.38
2023-01-07T00:13:44.446Z,98921.13
2023-01-07T00:15:47.045Z,98897.84
2023-01-07T00:17:49.713Z,98916.78
2023-01-07T00:19:52.365Z,98910.91
2023-01-07T00:21:55.199Z,98918.09
2023-01-07T00:24:00.408Z,98918.19
2023-01-07T00:26:07.779Z,98923.34
2023-01-07T00:28:10.407Z,98921.75
2023-01-07T00:30:13.476Z,98916.78
2023-01-07T00:32:16.213Z,98922.69
2023-01-07T00:34:23.670Z,98927.66
2023-01-07T00:36:32.726Z,98931.34
2023-01-07T00:38:38.991Z,98933.16
2023-01-07T00:40:41.620Z,98944.38
2023-01-07T00:43:01.642Z,98945.38
2023-01-07T00:45:04.574Z,98937.75
2023-01-07T00:47:07.256Z,98937.75
2023-01-07T00:49:09.920Z,98931.00
2023-01-07T00:51:14.517Z,98944.81
2023-01-07T00:53:17.840Z,98952.59
2023-01-07T00:55:21.296Z,98950.03
2023-01-07T00:57:24.062Z,98960.34
2023-01-07T00:59:26.766Z,98952.72
2023-01-07T01:01:29.626Z,98963.91
2023-01-07T01:03:33.895Z,98973.38
2023-01-07T01:05:36.518Z,98969.06
2023-01-07T01:07:39.387Z,98975.63
2023-01-07T01:09:42.052Z,98979.66
2023-01-07T01:11:44.919Z,98972.88
2023-01-07T01:13:47.674Z,98979.03
2023-01-07T01:15:50.723Z,98981.34
2023-01-07T01:17:53.716Z,98989.81
2023-01-07T01:19:56.637Z,98969.63
2023-01-07T01:21:59.505Z,98996.44
2023-01-07T01:24:02.063Z,98993.72
2023-01-07T01:26:11.238Z,98981.84
2023-01-07T01:28:13.893Z,98989.66
2023-01-07T01:30:16.535Z,98980.72
2023-01-07T01:32:19.147Z,98973.72
2023-01-07T01:34:21.890Z,98984.88
2023-01-07T01:36:25.007Z,98991.97
2023-01-07T01:38:27.597Z,98988.47
2023-01-07T01:40:30.588Z,98993.50
2023-01-07T01:42:33.960Z,98987.63
2023-01-07T01:44:47.456Z,98984.31
2023-01-07T01:46:50.188Z,98979.16
2023-01-07T01:49:00.482Z,98983.75
2023-01-07T01:51:03.995Z,98984.66
2023-01-07T01:53:28.801Z,98985.50
2023-01-07T01:55:36.688Z,98978.50
2023-01-07T01:57:40.412Z,98982.16
2023-01-07T01:59:46.156Z,98978.97
2023-01-07T02:01:49.127Z,98992.81
2023-01-07T02:03:52.868Z,99005.84
2023-01-07T02:05:55.852Z,98998.06
2023-01-07T02:07:58.560Z,98989.66
2023-01-07T02:10:11.864Z,98993.22
2023-01-07T02:12:35.051Z,99005.22
2023-01-07T02:15:22.925Z,98999.19
2023-01-07T02:17:59.410Z,98995.63
2023-01-07T02:20:25.991Z,99010.34
2023-01-07T02:22:42.700Z,98993.59
2023-01-07T02:24:53.966Z,98996.16
2023-01-07T02:27:21.601Z,98999.81
2023-01-07T02:29:45.769Z,99007.53
2023-01-07T02:32:10.943Z,99002.47
2023-01-07T02:34:38.143Z,99008.28
2023-01-07T02:37:06.082Z,99002.38
2023-01-07T02:39:22.016Z,99008.28
2023-01-07T02:41:49.053Z,98998.97
2023-01-07T02:43:54.190Z,99010.34
2023-01-07T02:46:13.837Z,98994.22
2023-01-07T02:48:20.963Z,98999.22
2023-01-07T02:50:23.963Z,99002.13
2023-01-07T02:52:29.460Z,99008.34
2023-01-07T02:54:32.134Z,99005.19
2023-01-07T02:56:45.776Z,99002.44
2023-01-07T02:59:16.207Z,99015.25
2023-01-07T03:01:26.756Z,99016.00
2023-01-07T03:03:47.413Z,99019.50
2023-01-07T03:06:27.283Z,99028.88
2023-01-07T03:08:52.619Z,99025.47
2023-01-07T03:11:05.520Z,99027.22
2023-01-07T03:13:14.712Z,99026.53
2023-01-07T03:15:28.079Z,99033.34
2023-01-07T03:17:38.538Z,99028.34
2023-01-07T03:19:46.841Z,99034.31
2023-01-07T03:21:51.192Z,99025.03
2023-01-07T03:23:56.901Z,99044.03
2023-01-07T03:26:03.636Z,99047.38
2023-01-07T03:28:08.157Z,99045.81
2023-01-07T03:30:16.084Z,99044.47
2023-01-07T03:32:32.707Z,99055.53
2023-01-07T03:34:37.577Z,99064.91
2023-01-07T03:36:45.005Z,99056.53
2023-01-07T03:38:48.610Z,99080.66
2023-01-07T03:40:52.200Z,99068.38
2023-01-07T03:42:54.926Z,99063.38
2023-01-07T03:44:59.031Z,99065.31
2023-01-07T03:47:02.620Z,99071.44
2023-01-07T03:49:05.228Z,99066.28
2023-01-07T03:51:07.935Z,99079.16
2023-01-07T03:53:10.546Z,99086.78
2023-01-07T03:55:13.227Z,99089.22
2023-01-07T03:57:15.965Z,99094.25
2023-01-07T03:59:18.643Z,99096.81
2023-01-07T04:01:21.351Z,99102.84
2023-01-07T04:03:24.169Z,99099.25
2023-01-07T04:05:26.789Z,99102.66
2023-01-07T04:07:29.489Z,99104.91
2023-01-07T04:09:32.117Z,99101.47
2023-01-07T04:11:34.825Z,99114.28
2023-01-07T04:13:37.569Z,99107.63
2023-01-07T04:15:40.342Z,99110.22
2023-01-07T04:17:42.981Z,99120.50
2023-01-07T04:19:46.003Z,99123.31
2023-01-07T04:21:48.666Z,99109.88
2023-01-07T04:23:51.217Z,99126.53
2023-01-07T04:25:53.992Z,99125.09
2023-01-07T04:27:56.706Z,99123.34
2023-01-07T04:29:59.303Z,99126.69
2023-01-07T04:32:01.997Z,99136.16
2023-01-07T04:34:04.757Z,99142.25
2023-01-07T04:36:07.732Z,99139.84
2023-01-07T04:38:10.307Z,99137.97
2023-01-07T04:40:13.199Z,99152.53
2023-01-07T04:42:15.834Z,99139.84
2023-01-07T04:44:18.595Z,99148.59
2023-01-07T04:46:21.346Z,99136.69
2023-01-07T04:48:24.046Z,99151.13
2023-01-07T04:50:26.727Z,99151.06
2023-01-07T04:52:29.384Z,99162.31
2023-01-07T04:54:32.077Z,99153.75
2023-01-07T04:56:34.741Z,99170.16
2023-01-07T04:58:37.653Z,99181.09
2023-01-07T05:00:40.306Z,99182.81
2023-01-07T05:02:43.002Z,99182.97
2023-01-07T05:04:45.833Z,99192.25
2023-01-07T05:06:48.452Z,99189.63
2023-01-07T05:08:51.129Z,99184.38
2023-01-07T05:10:54.195Z,99194.44
2023-01-07T05:12:56.815Z,99194.56
2023-01-07T05:14:59.434Z,99202.88
2023-01-07T05:17:02.169Z,99196.13
2023-01-07T05:19:04.966Z,99209.44
2023-01-07T05:21:07.593Z,99213.59
2023-01-07T05:23:10.372Z,99220.31
2023-01-07T05:25:12.955Z,99208.97
2023-01-07T05:27:15.935Z,99207.22
2023-01-07T05:29:18.755Z,99220.09
2023-01-07T05:31:21.538Z,99219.38
2023-01-07T05:33:24.264Z,99230.25
2023-01-07T05:35:26.952Z,99225.75
2023-01-07T05:37:29.569Z,99218.84
2023-01-07T05:39:32.250Z,99220.31
2023-01-07T05:41:34.894Z,99221.88
2023-01-07T05:43:37.626Z,99221.13
2023-01-07T05:45:40.319Z,99232.41
2023-01-07T05:47:43.475Z,99218.03
2023-01-07T05:49:46.087Z,99220.19
2023-01-07T05:51:48.661Z,99231.72
2023-01-07T05:53:51.292Z,99227.19
2023-01-07T05:55:58.434Z,99228.91
2023-01-07T05:58:01.076Z,99235.34
2023-01-07T06:00:04.855Z,99226.50
2023-01-07T06:02:07.765Z,99237.63
2023-01-07T06:04:10.988Z,99239.28
2023-01-07T06:06:13.663Z,99229.81
2023-01-07T06:08:17.589Z,99231.50
2023-01-07T06:10:20.313Z,99230.28
2023-01-07T06:12:22.999Z,99238.16
2023-01-07T06:14:25.580Z,99243.31
2023-01-07T06:16:28.336Z,99257.75
2023-01-07T06:18:31.510Z,99247.28
2023-01-07T06:20:34.931Z,99248.72
2023-01-07T06:22:37.555Z,99251.28
2023-01-07T06:24:40.215Z,99252.22
2023-01-07T06:26:42.866Z,99246.78
2023-01-07T06:28:45.832Z,99257.66
2023-01-07T06:30:49.000Z,99256.19
2023-01-07T06:32:51.687Z,99248.69
2023-01-07T06:34:54.275Z,99255.72
2023-01-07T06:36:56.959Z,99263.50
2023-01-07T06:38:59.547Z,99264.72
2023-01-07T06:41:02.525Z,99269.97
2023-01-07T06:43:05.581Z,99271.44
2023-01-07T06:45:09.354Z,99264.66
2023-01-07T06:47:11.971Z,99283.72
2023-01-07T06:49:14.561Z,99278.75
2023-01-07T06:51:17.264Z,99276.22
2023-01-07T06:53:19.880Z,99279.72
2023-01-07T06:55:22.744Z,99284.88
2023-01-07T06:57:25.365Z,99287.22
2023-01-07T06:59:28.030Z,99270.09
2023-01-07T07:01:31.005Z,99286.63
2023-01-07T07:03:33.780Z,99274.63
2023-01-07T07:05:36.801Z,99288.19
2023-01-07T07:07:44.300Z,99290.19
2023-01-07T07:09:48.325Z,99283.88
2023-01-07T07:11:51.057Z,99286.63
2023-01-07T07:13:53.685Z,99275.34
2023-01-07T07:15:56.439Z,99278.19
2023-01-07T07:17:59.090Z,99275.94
2023-01-07T07:20:01.860Z,99269.75
2023-01-07T07:22:06.995Z,99277.38
2023-01-07T07:24:10.557Z,99262.91
2023-01-07T07:26:13.214Z,99265.13
2023-01-07T07:28:17.254Z,99280.84
2023-01-07T07:30:20.822Z,99284.00
2023-01-07T07:32:28.565Z,99285.97
2023-01-07T07:34:31.247Z,99297.16
2023-01-07T07:36:33.889Z,99301.59
2023-01-07T07:38:36.541Z,99301.31
2023-01-07T07:40:39.241Z,99305.69
2023-01-07T07:43:11.994Z,99297.81
2023-01-07T07:45:09.037Z,99310.31
2023-01-07T07:47:13.099Z,99315.38
2023-01-07T07:49:15.699Z,99285.03
2023-01-07T07:51:18.385Z,99298.97
2023-01-07T07:53:22.080Z,99294.56
2023-01-07T07:56:10.722Z,99304.09
2023-01-07T07:58:13.552Z,99311.88
2023-01-07T08:00:16.742Z,99308.41
2023-01-07T08:02:19.859Z,99315.06
2023-01-07T08:04:22.484Z,99290.69
2023-01-07T08:06:25.188Z,99315.81
2023-01-07T08:08:27.836Z,99310.75
2023-01-07T08:10:30.592Z,99305.44
2023-01-07T08:12:36.424Z,99317.50
2023-01-07T08:14:39.224Z,99306.84
2023-01-07T08:16:41.900Z,99310.91
2023-01-07T08:18:44.540Z,99311.69
2023-01-07T08:20:48.342Z,99325.31
2023-01-07T08:22:51.062Z,99322.66
2023-01-07T08:24:53.993Z,99334.78
2023-01-07T08:26:57.042Z,99344.88
2023-01-07T08:28:59.634Z,99324.25
2023-01-07T08:31:06.967Z,99336.06
2023-01-07T08:33:09.817Z,99321.50
2023-01-07T08:35:13.147Z,99328.09
2023-01-07T08:37:15.812Z,99333.69
2023-01-07T08:39:19.022Z,99330.06
2023-01-07T08:41:23.499Z,99324.03
2023-01-07T08:43:26.935Z,99317.94
2023-01-07T08:45:30.304Z,99317.66
2023-01-07T08:47:33.212Z,99338.03
2023-01-07T08:49:35.787Z,99341.72
2023-01-07T08:51:38.508Z,99350.28
2023-01-07T08:53:41.445Z,99351.44
2023-01-07T08:55:44.131Z,99341.81
2023-01-07T08:57:47.815Z,99363.00
2023-01-07T08:59:50.698Z,99348.22
2023-01-07T09:01:53.536Z,99353.63
2023-01-07T09:03:56.220Z,99341.31
2023-01-07T09:05:59.184Z,99344.22
2023-01-07T09:08:03.967Z,99340.72
2023-01-07T09:10:07.541Z,99346.56
2023-01-07T09:12:11.205Z,99337.91
2023-01-07T09:14:14.083Z,99319.78
2023-01-07T09:16:16.743Z,99338.16
2023-01-07T09:18:20.489Z,99342.91
2023-01-07T09:20:23.268Z,99332.50
2023-01-07T09:22:26.024Z,99339.91
2023-01-07T09:24:28.822Z,99343.16
2023-01-07T09:26:31.539Z,99340.66
2023-01-07T09:28:34.295Z,99326.78
2023-01-07T09:30:37.753Z,99329.44
2023-01-07T09:32:40.614Z,99327.59
2023-01-07T09:34:43.412Z,99341.44
2023-01-07T09:36:46.331Z,99332.69
2023-01-07T09:38:48.948Z,99326.03
2023-01-07T09:40:52.042Z,99337.00
2023-01-07T09:43:03.069Z,99323.69
2023-01-07T09:45:10.915Z,99337.16
2023-01-07T09:47:17.693Z,99338.09
2023-01-07T09:49:20.501Z,99340.56
2023-01-07T09:51:34.433Z,99339.91
2023-01-07T09:53:45.281Z,99337.91
2023-01-07T09:56:11.340Z,99326.78
2023-01-07T09:58:21.073Z,99335.75
2023-01-07T10:00:25.308Z,99342.50
2023-01-07T10:02:49.393Z,99352.59
2023-01-07T10:05:19.911Z,99351.41
2023-01-07T10:07:46.010Z,99354.06
2023-01-07T10:09:54.229Z,99346.66
2023-01-07T10:12:22.876Z,99326.53
2023-01-07T10:14:34.458Z,99348.06
2023-01-07T10:16:54.970Z,99349.06
2023-01-07T10:19:12.608Z,99355.22
2023-01-07T10:21:31.636Z,99348.22
2023-01-07T10:23:40.526Z,99347.47
2023-01-07T10:25:50.182Z,99354.97
2023-01-07T10:27:57.874Z,99361.59
2023-01-07T10:30:04.570Z,99370.78
2023-01-07T10:32:19.912Z,99379.72
2023-01-07T10:34:32.410Z,99380.09
2023-01-07T10:36:44.353Z,99380.28
2023-01-07T10:39:04.072Z,99382.75
2023-01-07T10:41:18.949Z,99386.09
2023-01-07T10:43:38.962Z,99389.84
2023-01-07T10:45:50.527Z,99371.34
2023-01-07T10:48:12.082Z,99385.75
2023-01-07T10:50:26.812Z,99389.81
2023-01-07T10:52:55.242Z,99387.97
2023-01-07T10:55:19.174Z,99384.00
2023-01-07T10:57:25.091Z,99398.50
2023-01-07T10:59:27.754Z,99393.41
2023-01-07T11:01:44.871Z,99388.72
2023-01-07T11:03:54.335Z,99390.41
2023-01-07T11:06:03.736Z,99394.47
2023-01-07T11:08:16.178Z,99392.31
2023-01-07T11:10:25.510Z,99396.97
2023-01-07T11:12:39.931Z,99398.25
2023-01-07T11:14:44.135Z,99405.00
2023-01-07T11:16:51.838Z,99409.16
2023-01-07T11:19:09.331Z,99390.97
2023-01-07T11:21:43.894Z,99399.38
2023-01-07T11:23:45.358Z,99413.78
2023-01-07T11:25:48.196Z,99408.25
2023-01-07T11:27:51.073Z,99416.00
2023-01-07T11:30:00.911Z,99417.88
2023-01-07T11:32:05.751Z,99413.16
2023-01-07T11:34:19.457Z,99422.88
2023-01-07T11:36:40.109Z,99411.13
2023-01-07T11:38:43.048Z,99425.13
2023-01-07T11:40:57.846Z,99407.66
2023-01-07T11:43:20.609Z,99413.66
2023-01-07T11:45:38.334Z,99428.38
2023-01-07T11:47:48.134Z,99420.91
2023-01-07T11:49:50.819Z,99417.69
2023-01-07T11:51:54.108Z,99429.19
2023-01-07T11:53:59.415Z,99437.34
2023-01-07T11:56:12.267Z,99436.84
2023-01-07T11:58:28.113Z,99433.31
2023-01-07T12:00:31.801Z,99443.84
2023-01-07T12:02:34.532Z,99446.22
2023-01-07T12:04:37.609Z,99438.56
2023-01-07T12:06:44.730Z,99455.91
2023-01-07T12:08:58.216Z,99452.56
2023-01-07T12:11:07.575Z,99458.75
2023-01-07T12:13:21.968Z,99458.06
2023-01-07T12:15:49.835Z,99470.16
2023-01-07T12:18:44.651Z,99484.84
2023-01-07T12:20:59.807Z,99483.16
2023-01-07T12:23:40.979Z,99491.91
2023-01-07T12:26:09.788Z,99487.00
2023-01-07T12:28:53.010Z,99481.84
2023-01-07T12:31:08.999Z,99499.31
2023-01-07T12:33:42.252Z,99496.97
2023-01-07T12:35:45.875Z,99496.53
2023-01-07T12:38:05.181Z,99506.88
2023-01-07T12:40:10.600Z,99505.38
2023-01-07T12:42:19.551Z,99519.72
2023-01-07T12:44:23.133Z,99519.78
2023-01-07T12:46:31.469Z,99509.44
2023-01-07T12:48:42.186Z,99520.53
2023-01-07T12:50:50.333Z,99530.13
2023-01-07T12:53:40.547Z,99525.88
2023-01-07T12:55:54.848Z,99540.63
2023-01-07T12:58:15.422Z,99536.28
2023-01-07T13:00:23.449Z,99538.13
2023-01-07T13:02:48.859Z,99532.03
2023-01-07T13:05:19.970Z,99532.03
2023-01-07T13:07:35.428Z,99527.06
2023-01-07T13:10:10.934Z,99539.13
2023-01-07T13:12:45.918Z,99531.38
2023-01-07T13:14:53.389Z,99533.44
2023-01-07T13:17:08.648Z,99534.59
2023-01-07T13:19:11.321Z,99541.59
2023-01-07T13:21:16.257Z,99545.53
2023-01-07T13:23:25.404Z,99556.81
2023-01-07T13:25:59.811Z,99554.75
2023-01-07T13:28:20.915Z,99559.00
2023-01-07T13:30:51.600Z,99566.81
2023-01-07T13:32:57.398Z,99574.56
2023-01-07T13:35:18.564Z,99564.47
2023-01-07T13:37:45.050Z,99581.66
2023-01-07T13:40:35.722Z,99573.16
2023-01-07T13:42:50.521Z,99577.56
2023-01-07T13:44:53.161Z,99585.53
2023-01-07T13:46:56.640Z,99594.13
2023-01-07T13:48:59.537Z,99584.56
2023-01-07T13:51:07.547Z,99598.44
2023-01-07T13:53:16.261Z,99589.88
2023-01-07T13:55:39.081Z,99589.94
2023-01-07T13:57:42.492Z,99596.16
2023-01-07T13:59:49.954Z,99605.88
2023-01-07T14:02:17.874Z,99593.09
2023-01-07T14:04:33.460Z,99594.84
2023-01-07T14:06:39.975Z,99594.19
2023-01-07T14:08:43.979Z,99592.59
2023-01-07T14:10:53.497Z,99605.50
2023-01-07T14:13:32.292Z,99604.50
2023-01-07T14:15:47.632Z,99603.81
2023-01-07T14:18:01.744Z,99597.13
2023-01-07T14:20:19.389Z,99610.03
2023-01-07T14:22:27.455Z,99613.06
2023-01-07T14:25:06.019Z,99628.41
2023-01-07T14:27:17.488Z,99625.06
2023-01-07T14:29:23.641Z,99626.72
2023-01-07T14:31:30.156Z,99618.31
2023-01-07T14:33:41.256Z,99625.06
2023-01-07T14:36:04.652Z,99620.97
2023-01-07T14:38:32.392Z,99634.56
2023-01-07T14:40:35.069Z,99639.56
2023-01-07T14:42:45.400Z,99638.03
2023-01-07T14:44:50.313Z,99647.69
2023-01-07T14:46:53.579Z,99642.91
2023-01-07T14:49:02.280Z,99644.50
2023-01-07T14:51:42.512Z,99646.25
2023-01-07T14:54:22.438Z,99639.34
2023-01-07T14:56:43.586Z,99653.06
2023-01-07T14:58:58.544Z,99654.00
2023-01-07T15:01:22.426Z,99647.00
2023-01-07T15:03:43.831Z,99653.53
2023-01-07T15:06:08.410Z,99655.97
2023-01-07T15:08:37.215Z,99653.97
2023-01-07T15:11:19.958Z,99652.06
2023-01-07T15:13:41.703Z,99661.41
2023-01-07T15:16:01.728Z,99670.19
2023-01-07T15:18:10.102Z,99672.84
2023-01-07T15:20:12.988Z,99676.53
2023-01-07T15:22:39.565Z,99686.72
2023-01-07T15:24:44.876Z,99682.28
2023-01-07T15:27:13.186Z,99675.13
2023-01-07T15:29:38.679Z,99674.84
2023-01-07T15:32:00.010Z,99675.50
2023-01-07T15:34:11.025Z,99672.69
2023-01-07T15:36:15.932Z,99674.53
2023-01-07T15:38:29.012Z,99686.38
2023-01-07T15:40:31.871Z,99691.53
2023-01-07T15:42:34.801Z,99689.63
2023-01-07T15:44:41.116Z,99693.97
2023-01-07T15:46:44.045Z,99691.84
2023-01-07T15:49:03.246Z,99707.94
2023-01-07T15:51:17.033Z,99689.69
2023-01-07T15:53:25.790Z,99704.34
2023-01-07T15:55:38.975Z,99714.47
2023-01-07T15:57:41.677Z,99701.47
2023-01-07T15:59:48.011Z,99695.75
2023-01-07T16:01:53.065Z,99694.16
2023-01-07T16:03:57.370Z,99696.16
2023-01-07T16:06:02.772Z,99702.81
2023-01-07T16:08:05.727Z,99693.59
2023-01-07T16:10:19.989Z,99688.78
2023-01-07T16:12:37.441Z,99714.22
2023-01-07T16:14:40.069Z,99700.81
2023-01-07T16:16:43.048Z,99707.72
2023-01-07T16:18:55.145Z,99718.50
2023-01-07T16:21:05.387Z,99708.06
2023-01-07T16:23:11.155Z,99711.31
2023-01-07T16:25:23.486Z,99690.72
2023-01-07T16:27:30.403Z,99708.00
2023-01-07T16:29:38.395Z,99708.34
2023-01-07T16:31:41.088Z,99720.94
2023-01-07T16:33:45.472Z,99724.09
2023-01-07T16:35:50.005Z,99724.69
2023-01-07T16:37:54.046Z,99724.88
2023-01-07T16:39:57.106Z,99727.09
2023-01-07T16:42:18.788Z,99740.63
2023-01-07T16:44:49.738Z,99720.69
2023-01-07T16:47:07.391Z,99735.13
2023-01-07T16:49:20.678Z,99740.44
2023-01-07T16:51:45.335Z,99738.63
2023-01-07T16:53:47.996Z,99745.31
2023-01-07T16:56:02.767Z,99753.81
2023-01-07T16:58:06.113Z,99738.94
2023-01-07T17:00:17.960Z,99732.63
2023-01-07T17:02:32.645Z,99751.38
2023-01-07T17:04:35.407Z,99746.22
2023-01-07T17:06:41.513Z,99748.66
2023-01-07T17:08:54.066Z,99733.78
2023-01-07T17:11:02.144Z,99756.31
2023-01-07T17:13:15.095Z,99739.63
2023-01-07T17:15:34.586Z,99733.63
2023-01-07T17:17:37.204Z,99746.28
2023-01-07T17:19:41.683Z,99731.19
2023-01-07T17:21:44.956Z,99742.69
2023-01-07T17:23:47.630Z,99730.28
2023-01-07T17:25:58.075Z,99744.09
2023-01-07T17:28:07.444Z,99732.72
2023-01-07T17:30:17.302Z,99745.03
2023-01-07T17:32:20.682Z,99750.06
2023-01-07T17:34:25.224Z,99746.81
2023-01-07T17:36:27.956Z,99758.91
2023-01-07T17:38:30.599Z,99762.31
2023-01-07T17:40:33.316Z,99759.66
2023-01-07T17:42:54.641Z,99762.81
2023-01-07T17:44:57.299Z,99750.16
2023-01-07T17:47:00.163Z,99749.78
2023-01-07T17:49:02.836Z,99749.44
2023-01-07T17:51:07.860Z,99750.63
2023-01-07T17:53:23.760Z,99745.72
2023-01-07T17:55:29.907Z,99747.66
2023-01-07T17:57:32.549Z,99746.28
2023-01-07T17:59:35.154Z,99749.16
2023-01-07T18:01:37.944Z,99757.22
2023-01-07T18:03:40.658Z,99766.31
2023-01-07T18:05:43.377Z,99764.38
2023-01-07T18:07:46.170Z,99757.22
2023-01-07T18:09:48.826Z,99760.41
2023-01-07T18:12:10.074Z,99765.22
2023-01-07T18:14:16.757Z,99758.19
2023-01-07T18:16:19.538Z,99756.31
2023-01-07T18:18:22.207Z,99759.75
2023-01-07T18:20:24.886Z,99756.53
2023-01-07T18:22:27.660Z,99759.84
2023-01-07T18:24:30.279Z,99758.19
2023-01-07T18:26:33.008Z,99754.84
2023-01-07T18:28:35.779Z,99739.19
2023-01-07T18:30:39.258Z,99754.66
2023-01-07T18:32:42.507Z,99750.88
2023-01-07T18:34:45.150Z,99766.97
2023-01-07T18:36:47.962Z,99765.41
2023-01-07T18:38:50.663Z,99768.09
2023-01-07T18:40:54.439Z,99750.78
2023-01-07T18:42:57.178Z,99757.06
2023-01-07T18:45:00.039Z,99755.78
2023-01-07T18:47:02.730Z,99757.91
2023-01-07T18:49:05.351Z,99769.84
2023-01-07T18:51:11.825Z,99761.16
2023-01-07T18:53:15.439Z,99758.38
2023-01-07T18:55:19.513Z,99757.25
2023-01-07T18:57:22.236Z,99756.31
2023-01-07T18:59:24.887Z,99760.41
2023-01-07T19:01:27.703Z,99754.97
2023-01-07T19:03:30.448Z,99770.38
2023-01-07T19:05:33.225Z,99760.84
2023-01-07T19:07:36.389Z,99771.22
2023-01-07T19:09:39.115Z,99770.38
2023-01-07T19:11:42.727Z,99778.06
2023-01-07T19:13:45.521Z,99772.06
2023-01-07T19:15:48.185Z,99771.94
2023-01-07T19:17:50.923Z,99772.59
2023-01-07T19:19:53.562Z,99771.09
2023-01-07T19:21:56.847Z,99773.69
2023-01-07T19:24:03.762Z,99767.50
2023-01-07T19:26:08.954Z,99778.63
2023-01-07T19:28:11.906Z,99776.03
2023-01-07T19:30:14.779Z,99776.84
2023-01-07T19:32:17.530Z,99766.38
2023-01-07T19:34:20.350Z,99783.91
2023-01-07T19:36:22.948Z,99774.34
2023-01-07T19:38:25.695Z,99773.59
2023-01-07T19:40:28.319Z,99770.81
2023-01-07T19:42:32.968Z,99772.66
2023-01-07T19:44:37.985Z,99777.97
2023-01-07T19:46:41.329Z,99773.88
2023-01-07T19:48:46.746Z,99780.44
2023-01-07T19:51:15.860Z,99767.09
2023-01-07T19:53:18.586Z,99774.69
2023-01-07T19:55:22.722Z,99781.47
2023-01-07T19:57:25.413Z,99784.91
2023-01-07T19:59:28.029Z,99762.56
2023-01-07T20:01:30.884Z,99757.25
2023-01-07T20:03:35.146Z,99764.22
2023-01-07T20:05:37.845Z,99774.81
2023-01-07T20:07:40.489Z,99766.47
2023-01-07T20:09:43.074Z,99763.13
2023-01-07T20:11:50.274Z,99763.69
2023-01-07T20:13:53.048Z,99764.50
2023-01-07T20:15:55.903Z,99774.25
2023-01-07T20:17:58.582Z,99769.63
2023-01-07T20:20:01.184Z,99766.16
2023-01-07T20:22:05.910Z,99767.75
2023-01-07T20:24:09.008Z,99763.56
2023-01-07T20:26:17.796Z,99757.66
2023-01-07T20:28:21.771Z,99760.06
2023-01-07T20:30:24.530Z,99753.00
2023-01-07T20:32:27.153Z,99740.59
2023-01-07T20:34:30.093Z,99759.97
2023-01-07T20:36:33.229Z,99742.50
2023-01-07T20:38:36.255Z,99751.88
2023-01-07T20:40:42.278Z,99745.00
2023-01-07T20:42:44.973Z,99741.50
2023-01-07T20:44:48.010Z,99742.31
2023-01-07T20:46:50.713Z,99749.28
2023-01-07T20:48:54.067Z,99742.50
2023-01-07T20:50:57.426Z,99735.44
2023-01-07T20:53:00.060Z,99726.75
2023-01-07T20:55:03.746Z,99725.50
2023-01-07T20:57:06.626Z,99715.94
2023-01-07T20:59:09.388Z,99726.34
2023-01-07T21:01:15.850Z,99736.72
2023-01-07T21:03:18.695Z,99726.16
2023-01-07T21:05:24.916Z,99731.44
2023-01-07T21:07:28.130Z,99719.56
2023-01-07T21:09:30.780Z,99726.34
2023-01-07T21:11:34.110Z,99724.78
2023-01-07T21:13:36.964Z,99721.59
2023-01-07T21:15:40.064Z,99721.72
2023-01-07T21:17:43.447Z,99724.72
2023-01-07T21:19:46.287Z,99726.19
2023-01-07T21:21:50.790Z,99714.88
2023-01-07T21:23:54.436Z,99729.81
2023-01-07T21:25:57.163Z,99731.41
2023-01-07T21:27:59.862Z,99721.09
2023-01-07T21:30:05.666Z,99716.38
2023-01-07T21:32:08.622Z,99716.59
2023-01-07T21:34:11.576Z,99711.19
2023-01-07T21:36:16.989Z,99708.50
2023-01-07T21:38:19.855Z,99707.25
2023-01-07T21:40:23.295Z,99711.78
2023-01-07T21:42:25.974Z,99724.59
2023-01-07T21:44:30.814Z,99710.00
2023-01-07T21:46:33.443Z,99707.31
2023-01-07T21:48:38.536Z,99692.44
2023-01-07T21:50:41.210Z,99694.91
2023-01-07T21:52:43.876Z,99689.84
2023-01-07T21:54:46.509Z,99685.47
2023-01-07T21:56:49.109Z,99688.69
2023-01-07T21:58:51.863Z,99693.72
2023-01-07T22:00:54.631Z,99675.81
2023-01-07T22:02:57.291Z,99685.91
2023-01-07T22:05:00.016Z,99690.19
2023-01-07T22:07:02.647Z,99692.38
2023-01-07T22:09:07.571Z,99693.31
2023-01-07T22:11:17.840Z,99698.50
2023-01-07T22:13:21.576Z,99682.91
2023-01-07T22:15:24.419Z,99685.06
2023-01-07T22:17:27.334Z,99674.88
2023-01-07T22:19:29.983Z,99680.00
2023-01-07T22:21:33.153Z,99681.44
2023-01-07T22:23:37.356Z,99676.66
2023-01-07T22:25:40.153Z,99679.34
2023-01-07T22:27:43.044Z,99670.63
2023-01-07T22:29:45.842Z,99660.13
2023-01-07T22:31:51.165Z,99672.81
2023-01-07T22:33:55.151Z,99684.25
2023-01-07T22:35:59.536Z,99673.63
2023-01-07T22:38:02.976Z,99670.34
2023-01-07T22:40:07.435Z,99661.50
2023-01-07T22:42:18.008Z,99664.28
2023-01-07T22:44:29.204Z,99656.19
2023-01-07T22:46:34.015Z,99667.91
2023-01-07T22:48:36.863Z,99668.22
2023-01-07T22:50:40.311Z,99669.16
2023-01-07T22:52:43.603Z,99662.59
2023-01-07T22:54:46.418Z,99674.63
2023-01-07T22:56:50.141Z,99669.34
2023-01-07T22:58:53.295Z,99666.84
2023-01-07T23:00:58.637Z,99668.78
2023-01-07T23:03:01.369Z,99653.13
2023-01-07T23:05:04.338Z,99652.28
2023-01-07T23:07:07.170Z,99660.28
2023-01-07T23:09:09.811Z,99648.31
2023-01-07T23:11:32.815Z,99650.72
2023-01-07T23:13:35.699Z,99647.69
2023-01-07T23:15:39.478Z,99643.31
2023-01-07T23:17:42.194Z,99645.84
2023-01-07T23:19:44.925Z,99648.81
2023-01-07T23:21:49.963Z,99645.19
2023-01-07T23:23:52.582Z,99640.09
2023-01-07T23:25:55.247Z,99637.09
2023-01-07T23:27:58.021Z,99627.53
2023-01-07T23:30:00.954Z,99624.03
2023-01-07T23:32:03.640Z,99631.06
2023-01-07T23:34:06.617Z,99616.81
2023-01-07T23:36:10.254Z,99618.47
2023-01-07T23:38:12.839Z,99618.94
2023-01-07T23:40:15.464Z,99623.72
2023-01-07T23:42:18.814Z,99618.44
2023-01-07T23:44:21.582Z,99618.97
2023-01-07T23:46:24.264Z,99610.03
2023-01-07T23:48:29.296Z,99620.25
2023-01-07T23:50:31.891Z,99618.19
2023-01-07T23:52:35.083Z,99614.09
2023-01-07T23:54:37.803Z,99609.03
2023-01-07T23:56:40.501Z,99607.78
2023-01-07T23:58:43.152Z,99593.75
